sensor_id;sensor_type;location;lat;lon;timestamp;temperature;humidity
47532;DHT22;33273;52.254;7.988;2022-11-15T00:02:23;8.00;81.60
47532;DHT22;33273;52.254;7.988;2022-11-15T00:05:08;8.00;81.30
47532;DHT22;33273;52.254;7.988;2022-11-15T00:07:52;8.10;81.30
47532;DHT22;33273;52.254;7.988;2022-11-15T00:10:37;8.10;81.30
47532;DHT22;33273;52.254;7.988;2022-11-15T00:13:22;8.10;81.30
47532;DHT22;33273;52.254;7.988;2022-11-15T00:16:06;8.10;81.30
47532;DHT22;33273;52.254;7.988;2022-11-15T00:18:51;8.20;81.30
47532;DHT22;33273;52.254;7.988;2022-11-15T00:21:36;8.20;80.90
47532;DHT22;33273;52.254;7.988;2022-11-15T00:24:20;8.20;80.60
47532;DHT22;33273;52.254;7.988;2022-11-15T00:27:05;8.30;80.80
47532;DHT22;33273;52.254;7.988;2022-11-15T00:29:52;8.30;80.90
47532;DHT22;33273;52.254;7.988;2022-11-15T00:32:37;8.40;81.10
47532;DHT22;33273;52.254;7.988;2022-11-15T00:35:21;8.40;81.80
47532;DHT22;33273;52.254;7.988;2022-11-15T00:38:06;8.40;82.60
47532;DHT22;33273;52.254;7.988;2022-11-15T00:40:51;8.50;83.70
47532;DHT22;33273;52.254;7.988;2022-11-15T00:43:35;8.40;83.60
47532;DHT22;33273;52.254;7.988;2022-11-15T00:46:19;8.50;84.00
47532;DHT22;33273;52.254;7.988;2022-11-15T00:49:03;8.50;84.40
47532;DHT22;33273;52.254;7.988;2022-11-15T00:51:48;8.60;84.30
47532;DHT22;33273;52.254;7.988;2022-11-15T00:54:32;8.60;84.10
47532;DHT22;33273;52.254;7.988;2022-11-15T00:57:17;8.60;83.90
47532;DHT22;33273;52.254;7.988;2022-11-15T01:00:01;8.60;83.60
47532;DHT22;33273;52.254;7.988;2022-11-15T01:02:46;8.60;83.20
47532;DHT22;33273;52.254;7.988;2022-11-15T01:05:30;8.70;83.10
47532;DHT22;33273;52.254;7.988;2022-11-15T01:08:16;8.60;82.80
47532;DHT22;33273;52.254;7.988;2022-11-15T01:11:06;8.70;82.70
47532;DHT22;33273;52.254;7.988;2022-11-15T01:13:51;8.70;82.50
47532;DHT22;33273;52.254;7.988;2022-11-15T01:16:36;8.70;82.50
47532;DHT22;33273;52.254;7.988;2022-11-15T01:19:20;8.70;82.60
47532;DHT22;33273;52.254;7.988;2022-11-15T01:22:05;8.70;82.50
47532;DHT22;33273;52.254;7.988;2022-11-15T01:24:50;8.80;82.50
47532;DHT22;33273;52.254;7.988;2022-11-15T01:27:36;8.80;82.60
47532;DHT22;33273;52.254;7.988;2022-11-15T01:30:20;8.90;82.90
47532;DHT22;33273;52.254;7.988;2022-11-15T01:33:05;8.90;83.20
47532;DHT22;33273;52.254;7.988;2022-11-15T01:35:50;8.90;83.20
47532;DHT22;33273;52.254;7.988;2022-11-15T01:38:34;9.00;83.30
47532;DHT22;33273;52.254;7.988;2022-11-15T01:41:21;9.00;84.50
47532;DHT22;33273;52.254;7.988;2022-11-15T01:47:28;9.20;84.00
47532;DHT22;33273;52.254;7.988;2022-11-15T01:50:20;9.20;84.50
47532;DHT22;33273;52.254;7.988;2022-11-15T01:53:06;9.20;84.70
47532;DHT22;33273;52.254;7.988;2022-11-15T01:55:51;9.20;85.00
47532;DHT22;33273;52.254;7.988;2022-11-15T01:58:39;9.30;85.80
47532;DHT22;33273;52.254;7.988;2022-11-15T02:01:26;9.30;85.90
47532;DHT22;33273;52.254;7.988;2022-11-15T02:04:19;9.30;86.00
47532;DHT22;33273;52.254;7.988;2022-11-15T02:07:06;9.40;86.70
47532;DHT22;33273;52.254;7.988;2022-11-15T02:09:51;9.40;86.00
47532;DHT22;33273;52.254;7.988;2022-11-15T02:12:37;9.40;85.90
47532;DHT22;33273;52.254;7.988;2022-11-15T02:15:24;9.40;85.90
47532;DHT22;33273;52.254;7.988;2022-11-15T02:18:35;9.50;86.10
47532;DHT22;33273;52.254;7.988;2022-11-15T02:24:45;9.60;86.90
47532;DHT22;33273;52.254;7.988;2022-11-15T02:27:57;9.60;87.10
47532;DHT22;33273;52.254;7.988;2022-11-15T02:42:58;9.80;88.60
47532;DHT22;33273;52.254;7.988;2022-11-15T02:46:31;9.90;88.80
47532;DHT22;33273;52.254;7.988;2022-11-15T02:49:37;9.90;88.90
47532;DHT22;33273;52.254;7.988;2022-11-15T02:52:24;10.00;89.20
47532;DHT22;33273;52.254;7.988;2022-11-15T02:55:45;10.00;89.10
47532;DHT22;33273;52.254;7.988;2022-11-15T02:58:57;10.10;89.70
47532;DHT22;33273;52.254;7.988;2022-11-15T03:17:10;10.20;89.10
47532;DHT22;33273;52.254;7.988;2022-11-15T03:19:58;10.20;89.20
47532;DHT22;33273;52.254;7.988;2022-11-15T03:22:44;10.30;89.50
47532;DHT22;33273;52.254;7.988;2022-11-15T03:25:31;10.30;89.50
47532;DHT22;33273;52.254;7.988;2022-11-15T03:28:23;10.30;89.40
47532;DHT22;33273;52.254;7.988;2022-11-15T03:31:09;10.30;89.60
47532;DHT22;33273;52.254;7.988;2022-11-15T03:37:11;10.30;89.40
47532;DHT22;33273;52.254;7.988;2022-11-15T03:39:56;10.30;90.00
47532;DHT22;33273;52.254;7.988;2022-11-15T03:42:53;10.30;89.90
47532;DHT22;33273;52.254;7.988;2022-11-15T03:46:01;10.30;89.90
47532;DHT22;33273;52.254;7.988;2022-11-15T03:49:09;10.30;89.90
47532;DHT22;33273;52.254;7.988;2022-11-15T03:51:57;10.30;90.00
47532;DHT22;33273;52.254;7.988;2022-11-15T03:54:54;10.40;90.40
47532;DHT22;33273;52.254;7.988;2022-11-15T03:57:39;10.40;90.50
47532;DHT22;33273;52.254;7.988;2022-11-15T04:00:23;10.40;90.40
47532;DHT22;33273;52.254;7.988;2022-11-15T04:03:08;10.40;90.50
47532;DHT22;33273;52.254;7.988;2022-11-15T04:05:52;10.40;90.80
47532;DHT22;33273;52.254;7.988;2022-11-15T04:08:36;10.40;91.00
47532;DHT22;33273;52.254;7.988;2022-11-15T04:11:21;10.50;91.60
47532;DHT22;33273;52.254;7.988;2022-11-15T04:14:06;10.50;91.80
47532;DHT22;33273;52.254;7.988;2022-11-15T04:16:50;10.50;92.00
47532;DHT22;33273;52.254;7.988;2022-11-15T04:19:35;10.50;91.80
47532;DHT22;33273;52.254;7.988;2022-11-15T04:22:37;10.60;92.60
47532;DHT22;33273;52.254;7.988;2022-11-15T04:25:41;10.60;92.00
47532;DHT22;33273;52.254;7.988;2022-11-15T04:28:27;10.60;92.00
47532;DHT22;33273;52.254;7.988;2022-11-15T04:31:11;10.70;92.00
47532;DHT22;33273;52.254;7.988;2022-11-15T04:33:56;10.70;92.10
47532;DHT22;33273;52.254;7.988;2022-11-15T04:36:41;10.70;91.90
47532;DHT22;33273;52.254;7.988;2022-11-15T04:39:46;10.70;91.90
47532;DHT22;33273;52.254;7.988;2022-11-15T04:42:31;10.70;92.10
47532;DHT22;33273;52.254;7.988;2022-11-15T04:45:15;10.70;92.50
47532;DHT22;33273;52.254;7.988;2022-11-15T04:47:59;10.70;92.30
47532;DHT22;33273;52.254;7.988;2022-11-15T04:50:44;10.70;92.30
47532;DHT22;33273;52.254;7.988;2022-11-15T04:53:29;10.70;93.00
47532;DHT22;33273;52.254;7.988;2022-11-15T04:56:13;10.80;92.80
47532;DHT22;33273;52.254;7.988;2022-11-15T04:58:57;10.80;92.80
47532;DHT22;33273;52.254;7.988;2022-11-15T05:01:42;10.80;93.10
47532;DHT22;33273;52.254;7.988;2022-11-15T05:04:26;10.80;93.20
47532;DHT22;33273;52.254;7.988;2022-11-15T05:07:11;10.80;93.30
47532;DHT22;33273;52.254;7.988;2022-11-15T05:09:56;10.80;93.70
47532;DHT22;33273;52.254;7.988;2022-11-15T05:12:41;10.80;93.60
47532;DHT22;33273;52.254;7.988;2022-11-15T05:15:25;10.90;93.70
47532;DHT22;33273;52.254;7.988;2022-11-15T05:18:11;10.90;93.60
47532;DHT22;33273;52.254;7.988;2022-11-15T05:20:55;10.80;93.60
47532;DHT22;33273;52.254;7.988;2022-11-15T05:23:39;10.80;93.70
47532;DHT22;33273;52.254;7.988;2022-11-15T05:26:24;10.80;94.10
47532;DHT22;33273;52.254;7.988;2022-11-15T05:29:09;10.90;94.70
47532;DHT22;33273;52.254;7.988;2022-11-15T05:31:54;10.90;94.70
47532;DHT22;33273;52.254;7.988;2022-11-15T05:34:39;10.90;94.90
47532;DHT22;33273;52.254;7.988;2022-11-15T05:37:24;10.90;95.10
47532;DHT22;33273;52.254;7.988;2022-11-15T05:40:09;11.00;95.30
47532;DHT22;33273;52.254;7.988;2022-11-15T05:42:53;11.00;95.60
47532;DHT22;33273;52.254;7.988;2022-11-15T05:45:37;11.10;95.70
47532;DHT22;33273;52.254;7.988;2022-11-15T05:48:22;11.10;95.50
47532;DHT22;33273;52.254;7.988;2022-11-15T05:51:07;11.10;95.30
47532;DHT22;33273;52.254;7.988;2022-11-15T05:53:52;11.20;95.20
47532;DHT22;33273;52.254;7.988;2022-11-15T05:56:36;11.20;95.20
47532;DHT22;33273;52.254;7.988;2022-11-15T05:59:21;11.20;95.10
47532;DHT22;33273;52.254;7.988;2022-11-15T06:02:06;11.30;95.50
47532;DHT22;33273;52.254;7.988;2022-11-15T06:04:50;11.30;95.40
47532;DHT22;33273;52.254;7.988;2022-11-15T06:07:35;11.30;95.40
47532;DHT22;33273;52.254;7.988;2022-11-15T06:10:19;11.30;95.30
47532;DHT22;33273;52.254;7.988;2022-11-15T06:13:05;11.30;95.30
47532;DHT22;33273;52.254;7.988;2022-11-15T06:15:50;11.30;95.10
47532;DHT22;33273;52.254;7.988;2022-11-15T06:18:35;11.40;95.40
47532;DHT22;33273;52.254;7.988;2022-11-15T06:21:21;11.50;95.30
47532;DHT22;33273;52.254;7.988;2022-11-15T06:24:06;11.50;95.00
47532;DHT22;33273;52.254;7.988;2022-11-15T06:26:50;11.40;94.70
47532;DHT22;33273;52.254;7.988;2022-11-15T06:29:35;11.50;94.60
47532;DHT22;33273;52.254;7.988;2022-11-15T06:32:19;11.40;94.40
47532;DHT22;33273;52.254;7.988;2022-11-15T06:35:04;11.40;94.20
47532;DHT22;33273;52.254;7.988;2022-11-15T06:37:49;11.40;93.90
47532;DHT22;33273;52.254;7.988;2022-11-15T06:40:35;11.40;93.90
47532;DHT22;33273;52.254;7.988;2022-11-15T06:43:19;11.40;94.00
47532;DHT22;33273;52.254;7.988;2022-11-15T06:46:05;11.40;93.90
47532;DHT22;33273;52.254;7.988;2022-11-15T06:48:53;11.40;94.20
47532;DHT22;33273;52.254;7.988;2022-11-15T06:51:38;11.40;94.30
47532;DHT22;33273;52.254;7.988;2022-11-15T06:54:22;11.40;95.00
47532;DHT22;33273;52.254;7.988;2022-11-15T06:57:07;11.30;94.10
47532;DHT22;33273;52.254;7.988;2022-11-15T06:59:52;11.30;94.30
47532;DHT22;33273;52.254;7.988;2022-11-15T07:02:36;11.30;94.70
47532;DHT22;33273;52.254;7.988;2022-11-15T07:05:20;11.20;95.20
47532;DHT22;33273;52.254;7.988;2022-11-15T07:08:06;11.30;95.60
47532;DHT22;33273;52.254;7.988;2022-11-15T07:10:51;11.30;95.60
47532;DHT22;33273;52.254;7.988;2022-11-15T07:13:36;11.30;96.00
47532;DHT22;33273;52.254;7.988;2022-11-15T07:16:21;11.30;96.10
47532;DHT22;33273;52.254;7.988;2022-11-15T07:19:05;11.30;96.20
47532;DHT22;33273;52.254;7.988;2022-11-15T07:21:50;11.30;96.20
47532;DHT22;33273;52.254;7.988;2022-11-15T07:24:34;11.40;96.40
47532;DHT22;33273;52.254;7.988;2022-11-15T07:27:19;11.40;96.20
47532;DHT22;33273;52.254;7.988;2022-11-15T07:30:03;11.50;96.10
47532;DHT22;33273;52.254;7.988;2022-11-15T07:35:39;11.60;95.40
47532;DHT22;33273;52.254;7.988;2022-11-15T07:38:24;11.70;94.60
47532;DHT22;33273;52.254;7.988;2022-11-15T07:41:08;11.70;94.10
47532;DHT22;33273;52.254;7.988;2022-11-15T07:43:53;11.70;93.60
47532;DHT22;33273;52.254;7.988;2022-11-15T07:46:38;11.80;93.20
47532;DHT22;33273;52.254;7.988;2022-11-15T07:49:22;11.80;92.70
47532;DHT22;33273;52.254;7.988;2022-11-15T07:52:07;11.80;92.50
47532;DHT22;33273;52.254;7.988;2022-11-15T07:54:52;11.90;92.40
47532;DHT22;33273;52.254;7.988;2022-11-15T07:57:37;11.90;92.10
47532;DHT22;33273;52.254;7.988;2022-11-15T08:00:22;11.90;91.90
47532;DHT22;33273;52.254;7.988;2022-11-15T08:03:08;12.00;91.70
47532;DHT22;33273;52.254;7.988;2022-11-15T08:05:53;12.00;91.40
47532;DHT22;33273;52.254;7.988;2022-11-15T08:08:38;12.00;91.10
47532;DHT22;33273;52.254;7.988;2022-11-15T08:11:22;12.00;90.70
47532;DHT22;33273;52.254;7.988;2022-11-15T08:14:07;12.10;90.30
47532;DHT22;33273;52.254;7.988;2022-11-15T08:16:51;12.10;90.40
47532;DHT22;33273;52.254;7.988;2022-11-15T08:19:36;12.10;90.00
47532;DHT22;33273;52.254;7.988;2022-11-15T08:22:21;12.10;90.00
47532;DHT22;33273;52.254;7.988;2022-11-15T08:25:05;12.10;89.90
47532;DHT22;33273;52.254;7.988;2022-11-15T08:27:52;12.10;89.70
47532;DHT22;33273;52.254;7.988;2022-11-15T08:30:41;12.10;89.50
47532;DHT22;33273;52.254;7.988;2022-11-15T08:33:27;12.10;89.50
47532;DHT22;33273;52.254;7.988;2022-11-15T08:36:14;12.10;89.40
47532;DHT22;33273;52.254;7.988;2022-11-15T08:39:00;12.10;89.40
47532;DHT22;33273;52.254;7.988;2022-11-15T08:41:45;12.10;90.20
47532;DHT22;33273;52.254;7.988;2022-11-15T08:44:29;12.10;89.70
47532;DHT22;33273;52.254;7.988;2022-11-15T08:47:13;12.10;89.80
47532;DHT22;33273;52.254;7.988;2022-11-15T08:49:58;12.10;90.00
47532;DHT22;33273;52.254;7.988;2022-11-15T08:52:43;12.10;90.30
47532;DHT22;33273;52.254;7.988;2022-11-15T08:55:27;12.10;90.60
47532;DHT22;33273;52.254;7.988;2022-11-15T08:58:12;12.10;91.10
47532;DHT22;33273;52.254;7.988;2022-11-15T09:00:57;12.10;91.40
47532;DHT22;33273;52.254;7.988;2022-11-15T09:03:41;12.10;91.50
47532;DHT22;33273;52.254;7.988;2022-11-15T09:06:25;12.20;91.90
47532;DHT22;33273;52.254;7.988;2022-11-15T09:09:10;12.20;91.70
47532;DHT22;33273;52.254;7.988;2022-11-15T09:11:54;12.20;91.40
47532;DHT22;33273;52.254;7.988;2022-11-15T09:14:39;12.30;91.10
47532;DHT22;33273;52.254;7.988;2022-11-15T09:17:23;12.30;90.90
47532;DHT22;33273;52.254;7.988;2022-11-15T09:20:09;12.30;90.30
47532;DHT22;33273;52.254;7.988;2022-11-15T09:22:53;12.30;90.30
47532;DHT22;33273;52.254;7.988;2022-11-15T09:25:37;12.40;90.10
47532;DHT22;33273;52.254;7.988;2022-11-15T09:28:21;12.40;89.70
47532;DHT22;33273;52.254;7.988;2022-11-15T09:31:07;12.40;89.00
47532;DHT22;33273;52.254;7.988;2022-11-15T09:33:52;12.50;88.90
47532;DHT22;33273;52.254;7.988;2022-11-15T09:36:37;12.50;88.40
47532;DHT22;33273;52.254;7.988;2022-11-15T09:39:21;12.60;88.30
47532;DHT22;33273;52.254;7.988;2022-11-15T09:50:51;12.80;86.10
47532;DHT22;33273;52.254;7.988;2022-11-15T09:53:58;12.80;84.20
47532;DHT22;33273;52.254;7.988;2022-11-15T09:56:29;12.90;83.80
47532;DHT22;33273;52.254;7.988;2022-11-15T10:04:59;13.00;80.70
47532;DHT22;33273;52.254;7.988;2022-11-15T10:07:34;13.00;80.40
47532;DHT22;33273;52.254;7.988;2022-11-15T10:12:47;13.10;79.00
47532;DHT22;33273;52.254;7.988;2022-11-15T10:15:16;13.10;77.10
47532;DHT22;33273;52.254;7.988;2022-11-15T10:21:11;13.20;75.20
47532;DHT22;33273;52.254;7.988;2022-11-15T10:23:38;13.20;72.00
47532;DHT22;33273;52.254;7.988;2022-11-15T10:26:08;13.20;71.00
47532;DHT22;33273;52.254;7.988;2022-11-15T10:28:34;13.20;71.10
47532;DHT22;33273;52.254;7.988;2022-11-15T10:31:01;13.30;70.60
47532;DHT22;33273;52.254;7.988;2022-11-15T10:33:35;13.30;71.10
47532;DHT22;33273;52.254;7.988;2022-11-15T10:41:29;13.30;71.10
47532;DHT22;33273;52.254;7.988;2022-11-15T10:49:23;13.40;67.60
47532;DHT22;33273;52.254;7.988;2022-11-15T10:52:15;13.40;66.40
47532;DHT22;33273;52.254;7.988;2022-11-15T10:54:46;13.50;67.40
47532;DHT22;33273;52.254;7.988;2022-11-15T10:57:36;13.50;68.20
47532;DHT22;33273;52.254;7.988;2022-11-15T11:00:33;13.50;67.70
47532;DHT22;33273;52.254;7.988;2022-11-15T11:03:02;13.60;66.20
47532;DHT22;33273;52.254;7.988;2022-11-15T11:05:40;13.60;65.50
47532;DHT22;33273;52.254;7.988;2022-11-15T11:10:56;13.50;63.60
47532;DHT22;33273;52.254;7.988;2022-11-15T11:13:34;13.60;62.40
47532;DHT22;33273;52.254;7.988;2022-11-15T11:30:24;13.80;58.90
47532;DHT22;33273;52.254;7.988;2022-11-15T11:41:15;13.80;57.30
47532;DHT22;33273;52.254;7.988;2022-11-15T11:47:12;13.80;57.50
47532;DHT22;33273;52.254;7.988;2022-11-15T11:52:15;13.80;58.10
47532;DHT22;33273;52.254;7.988;2022-11-15T11:57:35;13.80;56.80
47532;DHT22;33273;52.254;7.988;2022-11-15T12:00:22;13.80;56.20
47532;DHT22;33273;52.254;7.988;2022-11-15T12:03:11;13.80;56.70
47532;DHT22;33273;52.254;7.988;2022-11-15T12:05:59;13.80;57.30
47532;DHT22;33273;52.254;7.988;2022-11-15T12:08:33;13.80;55.80
47532;DHT22;33273;52.254;7.988;2022-11-15T12:11:20;13.70;54.20
47532;DHT22;33273;52.254;7.988;2022-11-15T12:13:59;13.80;53.60
47532;DHT22;33273;52.254;7.988;2022-11-15T12:16:31;13.80;53.10
47532;DHT22;33273;52.254;7.988;2022-11-15T12:19:03;13.80;51.50
47532;DHT22;33273;52.254;7.988;2022-11-15T12:24:39;13.80;49.80
47532;DHT22;33273;52.254;7.988;2022-11-15T12:29:40;13.90;50.10
47532;DHT22;33273;52.254;7.988;2022-11-15T12:32:28;13.80;49.60
47532;DHT22;33273;52.254;7.988;2022-11-15T12:34:59;13.90;48.60
47532;DHT22;33273;52.254;7.988;2022-11-15T12:40:22;13.90;48.40
47532;DHT22;33273;52.254;7.988;2022-11-15T12:45:43;13.90;48.80
47532;DHT22;33273;52.254;7.988;2022-11-15T12:50:54;14.00;49.50
47532;DHT22;33273;52.254;7.988;2022-11-15T12:59:00;14.00;49.90
47532;DHT22;33273;52.254;7.988;2022-11-15T13:06:49;14.10;48.90
47532;DHT22;33273;52.254;7.988;2022-11-15T13:10:14;14.10;48.60
47532;DHT22;33273;52.254;7.988;2022-11-15T13:23:18;14.10;47.40
47532;DHT22;33273;52.254;7.988;2022-11-15T13:28:47;14.00;47.70
47532;DHT22;33273;52.254;7.988;2022-11-15T13:31:36;14.00;48.00
47532;DHT22;33273;52.254;7.988;2022-11-15T13:34:27;14.00;48.20
47532;DHT22;33273;52.254;7.988;2022-11-15T13:36:54;14.00;48.30
47532;DHT22;33273;52.254;7.988;2022-11-15T13:39:31;13.90;48.30
47532;DHT22;33273;52.254;7.988;2022-11-15T13:41:58;13.90;47.90
47532;DHT22;33273;52.254;7.988;2022-11-15T13:44:26;13.90;48.70
47532;DHT22;33273;52.254;7.988;2022-11-15T13:47:14;13.90;47.90
47532;DHT22;33273;52.254;7.988;2022-11-15T13:49:40;13.90;48.90
47532;DHT22;33273;52.254;7.988;2022-11-15T13:52:09;13.90;48.90
47532;DHT22;33273;52.254;7.988;2022-11-15T13:57:36;13.90;48.70
47532;DHT22;33273;52.254;7.988;2022-11-15T14:02:50;13.90;47.00
47532;DHT22;33273;52.254;7.988;2022-11-15T14:05:19;14.00;47.50
47532;DHT22;33273;52.254;7.988;2022-11-15T14:08:04;14.00;47.10
47532;DHT22;33273;52.254;7.988;2022-11-15T14:10:37;13.90;47.10
47532;DHT22;33273;52.254;7.988;2022-11-15T14:13:10;13.90;46.70
47532;DHT22;33273;52.254;7.988;2022-11-15T14:15:50;13.90;46.90
47532;DHT22;33273;52.254;7.988;2022-11-15T14:21:08;13.90;47.60
47532;DHT22;33273;52.254;7.988;2022-11-15T14:23:37;13.90;47.90
47532;DHT22;33273;52.254;7.988;2022-11-15T14:26:03;13.80;48.10
47532;DHT22;33273;52.254;7.988;2022-11-15T14:28:31;13.80;48.60
47532;DHT22;33273;52.254;7.988;2022-11-15T14:30:59;13.80;48.70
47532;DHT22;33273;52.254;7.988;2022-11-15T14:33:36;13.70;49.10
47532;DHT22;33273;52.254;7.988;2022-11-15T14:36:17;13.70;49.30
47532;DHT22;33273;52.254;7.988;2022-11-15T14:38:43;13.70;49.90
47532;DHT22;33273;52.254;7.988;2022-11-15T14:41:34;13.60;50.60
47532;DHT22;33273;52.254;7.988;2022-11-15T14:44:00;13.60;50.70
47532;DHT22;33273;52.254;7.988;2022-11-15T14:46:26;13.50;51.20
47532;DHT22;33273;52.254;7.988;2022-11-15T14:48:51;13.50;50.90
47532;DHT22;33273;52.254;7.988;2022-11-15T14:51:18;13.40;50.80
47532;DHT22;33273;52.254;7.988;2022-11-15T14:53:45;13.40;51.30
47532;DHT22;33273;52.254;7.988;2022-11-15T14:56:12;13.30;51.60
47532;DHT22;33273;52.254;7.988;2022-11-15T14:58:38;13.20;51.50
47532;DHT22;33273;52.254;7.988;2022-11-15T15:01:16;13.20;51.60
47532;DHT22;33273;52.254;7.988;2022-11-15T15:03:43;13.10;52.10
47532;DHT22;33273;52.254;7.988;2022-11-15T15:06:10;13.10;52.10
47532;DHT22;33273;52.254;7.988;2022-11-15T15:08:39;13.00;51.40
47532;DHT22;33273;52.254;7.988;2022-11-15T15:11:23;13.00;52.10
47532;DHT22;33273;52.254;7.988;2022-11-15T15:13:49;12.90;52.10
47532;DHT22;33273;52.254;7.988;2022-11-15T15:16:15;12.90;52.70
47532;DHT22;33273;52.254;7.988;2022-11-15T15:18:41;12.80;52.80
47532;DHT22;33273;52.254;7.988;2022-11-15T15:21:23;12.70;52.90
47532;DHT22;33273;52.254;7.988;2022-11-15T15:23:50;12.70;53.30
47532;DHT22;33273;52.254;7.988;2022-11-15T15:26:16;12.60;53.30
47532;DHT22;33273;52.254;7.988;2022-11-15T15:28:42;12.50;53.40
47532;DHT22;33273;52.254;7.988;2022-11-15T15:31:09;12.50;53.50
47532;DHT22;33273;52.254;7.988;2022-11-15T15:33:35;12.40;53.80
47532;DHT22;33273;52.254;7.988;2022-11-15T15:36:01;12.30;53.90
47532;DHT22;33273;52.254;7.988;2022-11-15T15:38:28;12.20;53.70
47532;DHT22;33273;52.254;7.988;2022-11-15T15:40:55;12.20;53.80
47532;DHT22;33273;52.254;7.988;2022-11-15T15:43:21;12.20;53.90
47532;DHT22;33273;52.254;7.988;2022-11-15T15:45:47;12.10;54.10
47532;DHT22;33273;52.254;7.988;2022-11-15T15:48:14;12.00;54.40
47532;DHT22;33273;52.254;7.988;2022-11-15T15:50:41;11.90;54.10
47532;DHT22;33273;52.254;7.988;2022-11-15T15:53:09;11.90;54.30
47532;DHT22;33273;52.254;7.988;2022-11-15T15:55:39;11.80;54.50
47532;DHT22;33273;52.254;7.988;2022-11-15T15:58:05;11.80;56.70
47532;DHT22;33273;52.254;7.988;2022-11-15T16:00:33;11.80;55.80
47532;DHT22;33273;52.254;7.988;2022-11-15T16:02:59;11.70;55.50
47532;DHT22;33273;52.254;7.988;2022-11-15T16:05:25;11.70;55.60
47532;DHT22;33273;52.254;7.988;2022-11-15T16:07:51;11.60;55.60
47532;DHT22;33273;52.254;7.988;2022-11-15T16:12:51;11.60;56.10
47532;DHT22;33273;52.254;7.988;2022-11-15T16:15:17;11.50;56.40
47532;DHT22;33273;52.254;7.988;2022-11-15T16:17:55;11.50;56.60
47532;DHT22;33273;52.254;7.988;2022-11-15T16:20:34;11.50;56.60
47532;DHT22;33273;52.254;7.988;2022-11-15T16:23:04;11.40;56.70
47532;DHT22;33273;52.254;7.988;2022-11-15T16:25:42;11.40;57.10
47532;DHT22;33273;52.254;7.988;2022-11-15T16:28:28;11.40;57.30
47532;DHT22;33273;52.254;7.988;2022-11-15T16:31:09;11.30;57.60
47532;DHT22;33273;52.254;7.988;2022-11-15T16:33:36;11.30;58.10
47532;DHT22;33273;52.254;7.988;2022-11-15T16:36:03;11.20;58.30
47532;DHT22;33273;52.254;7.988;2022-11-15T16:38:31;11.20;58.60
47532;DHT22;33273;52.254;7.988;2022-11-15T16:40:58;11.10;58.90
47532;DHT22;33273;52.254;7.988;2022-11-15T16:43:24;11.10;59.00
47532;DHT22;33273;52.254;7.988;2022-11-15T16:45:50;11.10;59.20
47532;DHT22;33273;52.254;7.988;2022-11-15T16:48:23;11.10;59.40
47532;DHT22;33273;52.254;7.988;2022-11-15T16:50:50;11.00;59.50
47532;DHT22;33273;52.254;7.988;2022-11-15T16:53:16;11.00;59.80
47532;DHT22;33273;52.254;7.988;2022-11-15T16:55:42;10.90;60.10
47532;DHT22;33273;52.254;7.988;2022-11-15T16:58:09;10.90;60.40
47532;DHT22;33273;52.254;7.988;2022-11-15T17:00:36;10.80;61.30
47532;DHT22;33273;52.254;7.988;2022-11-15T17:03:05;10.80;61.50
47532;DHT22;33273;52.254;7.988;2022-11-15T17:05:31;10.70;60.90
47532;DHT22;33273;52.254;7.988;2022-11-15T17:07:57;10.70;60.50
47532;DHT22;33273;52.254;7.988;2022-11-15T17:10:24;10.70;60.40
47532;DHT22;33273;52.254;7.988;2022-11-15T17:12:51;10.60;60.20
47532;DHT22;33273;52.254;7.988;2022-11-15T17:15:18;10.60;60.30
47532;DHT22;33273;52.254;7.988;2022-11-15T17:17:51;10.60;60.10
47532;DHT22;33273;52.254;7.988;2022-11-15T17:20:19;10.60;60.10
47532;DHT22;33273;52.254;7.988;2022-11-15T17:22:45;10.60;60.00
47532;DHT22;33273;52.254;7.988;2022-11-15T17:25:12;10.60;60.10
47532;DHT22;33273;52.254;7.988;2022-11-15T17:27:38;10.60;60.40
47532;DHT22;33273;52.254;7.988;2022-11-15T17:30:05;10.60;60.80
47532;DHT22;33273;52.254;7.988;2022-11-15T17:32:31;10.60;61.30
47532;DHT22;33273;52.254;7.988;2022-11-15T17:34:59;10.70;62.00
47532;DHT22;33273;52.254;7.988;2022-11-15T17:37:25;10.70;62.20
47532;DHT22;33273;52.254;7.988;2022-11-15T17:39:51;10.70;62.50
47532;DHT22;33273;52.254;7.988;2022-11-15T17:42:17;10.70;63.00
47532;DHT22;33273;52.254;7.988;2022-11-15T17:44:47;10.60;63.40
47532;DHT22;33273;52.254;7.988;2022-11-15T17:47:13;10.70;65.50
47532;DHT22;33273;52.254;7.988;2022-11-15T17:49:41;10.70;65.80
47532;DHT22;33273;52.254;7.988;2022-11-15T17:52:07;10.70;66.90
47532;DHT22;33273;52.254;7.988;2022-11-15T17:54:33;10.70;66.90
47532;DHT22;33273;52.254;7.988;2022-11-15T17:56:59;10.80;66.90
47532;DHT22;33273;52.254;7.988;2022-11-15T17:59:25;10.80;69.10
47532;DHT22;33273;52.254;7.988;2022-11-15T18:01:51;10.90;70.00
47532;DHT22;33273;52.254;7.988;2022-11-15T18:04:18;11.00;71.10
47532;DHT22;33273;52.254;7.988;2022-11-15T18:06:44;11.10;71.30
47532;DHT22;33273;52.254;7.988;2022-11-15T18:09:11;11.20;71.20
47532;DHT22;33273;52.254;7.988;2022-11-15T18:11:39;11.40;71.40
47532;DHT22;33273;52.254;7.988;2022-11-15T18:14:13;11.40;71.40
47532;DHT22;33273;52.254;7.988;2022-11-15T18:16:39;11.50;71.50
47532;DHT22;33273;52.254;7.988;2022-11-15T18:19:06;11.60;71.30
47532;DHT22;33273;52.254;7.988;2022-11-15T18:21:38;11.70;71.40
47532;DHT22;33273;52.254;7.988;2022-11-15T18:24:28;11.70;71.20
47532;DHT22;33273;52.254;7.988;2022-11-15T18:26:55;11.90;70.90
47532;DHT22;33273;52.254;7.988;2022-11-15T18:29:21;11.90;70.30
47532;DHT22;33273;52.254;7.988;2022-11-15T18:31:49;12.00;70.10
47532;DHT22;33273;52.254;7.988;2022-11-15T18:34:23;12.10;69.70
47532;DHT22;33273;52.254;7.988;2022-11-15T18:36:52;12.10;69.60
47532;DHT22;33273;52.254;7.988;2022-11-15T18:39:19;12.20;69.20
47532;DHT22;33273;52.254;7.988;2022-11-15T18:41:45;12.20;69.10
47532;DHT22;33273;52.254;7.988;2022-11-15T18:44:11;12.30;68.90
47532;DHT22;33273;52.254;7.988;2022-11-15T18:46:38;12.30;68.80
47532;DHT22;33273;52.254;7.988;2022-11-15T18:49:04;12.30;69.00
47532;DHT22;33273;52.254;7.988;2022-11-15T18:51:34;12.30;69.10
47532;DHT22;33273;52.254;7.988;2022-11-15T18:54:02;12.30;69.10
47532;DHT22;33273;52.254;7.988;2022-11-15T18:56:31;12.30;69.30
47532;DHT22;33273;52.254;7.988;2022-11-15T18:58:59;12.30;69.40
47532;DHT22;33273;52.254;7.988;2022-11-15T19:01:30;12.30;69.40
47532;DHT22;33273;52.254;7.988;2022-11-15T19:04:10;12.30;69.60
47532;DHT22;33273;52.254;7.988;2022-11-15T19:06:40;12.30;69.50
47532;DHT22;33273;52.254;7.988;2022-11-15T19:09:07;12.30;69.50
47532;DHT22;33273;52.254;7.988;2022-11-15T19:11:35;12.40;69.60
47532;DHT22;33273;52.254;7.988;2022-11-15T19:14:13;12.30;69.80
47532;DHT22;33273;52.254;7.988;2022-11-15T19:16:44;12.40;69.70
47532;DHT22;33273;52.254;7.988;2022-11-15T19:19:15;12.40;69.60
47532;DHT22;33273;52.254;7.988;2022-11-15T19:21:42;12.40;69.70
47532;DHT22;33273;52.254;7.988;2022-11-15T19:24:08;12.40;69.80